KGAG/GAG METAR and TAF weather

Enter ICAO airport designator
Station Type Date Time Source
KGAG METAR 2020/11/28 19:53 UTC NOAA

KGAG 281953Z AUTO VRB03KT 10SM FEW120 10/M06 A3017 RMK AO2 SLP224 T01001061 $


Station Type Date Time Source
KGAG Decoded METAR 2020/11/28 19:53 UTC NOAA

GAGE AIRPORT, OK, United States (KGAG) 36-18N 99-46W 668M
Nov 28, 2020 - 02:53 PM EST / 2020.11.28 1953 UTC
Wind: Variable at 3 MPH (3 KT):0
Visibility: 10 mile(s):0
Sky conditions: mostly clear
Temperature: 50.0 F (10.0 C)
Dew Point: 21.0 F (-6.1 C)
Relative Humidity: 31%
Pressure (altimeter): 30.17 in. Hg (1021 hPa)
ob: KGAG 281953Z AUTO VRB03KT 10SM FEW120 10/M06 A3017 RMK AO2 SLP224 T01001061
cycle: 20

Station Type Date Time Source
KGAG TAF 2018/03/21 06:22 UTC NOAA

TAF KGAG 210520Z 2106/2206 VRB04KT P6SM SCT250
FM211300 16008KT P6SM SCT250
FM211800 18012G22KT P6SM BKN250

Example: see airport list